sensor_id;sensor_type;location;lat;lon;timestamp;P1;durP1;ratioP1;P2;durP2;ratioP2
15385;SDS011;7791;47.246;9.648;2024-03-02T00:02:05;35.40;;;18.97;;
15385;SDS011;7791;47.246;9.648;2024-03-02T00:04:36;36.27;;;18.20;;
15385;SDS011;7791;47.246;9.648;2024-03-02T00:07:26;34.37;;;17.90;;
15385;SDS011;7791;47.246;9.648;2024-03-02T00:10:14;35.83;;;17.93;;
15385;SDS011;7791;47.246;9.648;2024-03-02T00:12:45;34.17;;;18.13;;
15385;SDS011;7791;47.246;9.648;2024-03-02T00:18:35;38.53;;;17.73;;
15385;SDS011;7791;47.246;9.648;2024-03-02T00:21:09;38.27;;;18.60;;
15385;SDS011;7791;47.246;9.648;2024-03-02T00:24:01;37.63;;;19.23;;
15385;SDS011;7791;47.246;9.648;2024-03-02T00:29:57;39.70;;;19.77;;
15385;SDS011;7791;47.246;9.648;2024-03-02T00:32:36;38.80;;;19.77;;
15385;SDS011;7791;47.246;9.648;2024-03-02T00:35:25;42.83;;;20.00;;
15385;SDS011;7791;47.246;9.648;2024-03-02T00:38:05;36.90;;;19.00;;
15385;SDS011;7791;47.246;9.648;2024-03-02T00:40:41;35.07;;;19.03;;
15385;SDS011;7791;47.246;9.648;2024-03-02T00:46:18;35.23;;;17.90;;
15385;SDS011;7791;47.246;9.648;2024-03-02T00:54:29;32.60;;;18.00;;
15385;SDS011;7791;47.246;9.648;2024-03-02T01:00:11;32.03;;;17.27;;
15385;SDS011;7791;47.246;9.648;2024-03-02T01:02:54;31.43;;;17.07;;
15385;SDS011;7791;47.246;9.648;2024-03-02T01:05:31;31.17;;;16.53;;
15385;SDS011;7791;47.246;9.648;2024-03-02T01:11:05;27.03;;;14.50;;
15385;SDS011;7791;47.246;9.648;2024-03-02T01:13:44;29.73;;;15.77;;
15385;SDS011;7791;47.246;9.648;2024-03-02T01:18:57;28.50;;;15.33;;
15385;SDS011;7791;47.246;9.648;2024-03-02T01:21:30;29.43;;;15.50;;
15385;SDS011;7791;47.246;9.648;2024-03-02T01:26:46;27.60;;;15.17;;
15385;SDS011;7791;47.246;9.648;2024-03-02T01:29:22;27.63;;;15.27;;
15385;SDS011;7791;47.246;9.648;2024-03-02T01:32:04;30.63;;;14.50;;
15385;SDS011;7791;47.246;9.648;2024-03-02T01:34:38;31.10;;;15.17;;
15385;SDS011;7791;47.246;9.648;2024-03-02T01:37:08;34.13;;;18.03;;
15385;SDS011;7791;47.246;9.648;2024-03-02T01:39:57;27.53;;;14.60;;
15385;SDS011;7791;47.246;9.648;2024-03-02T01:42:28;28.50;;;15.63;;
15385;SDS011;7791;47.246;9.648;2024-03-02T01:45:03;27.77;;;15.27;;
15385;SDS011;7791;47.246;9.648;2024-03-02T01:47:48;28.50;;;15.53;;
15385;SDS011;7791;47.246;9.648;2024-03-02T01:53:12;31.13;;;16.20;;
15385;SDS011;7791;47.246;9.648;2024-03-02T01:58:27;29.27;;;15.30;;
15385;SDS011;7791;47.246;9.648;2024-03-02T02:04:01;27.67;;;14.13;;
15385;SDS011;7791;47.246;9.648;2024-03-02T02:06:45;27.33;;;14.63;;
15385;SDS011;7791;47.246;9.648;2024-03-02T02:14:55;24.60;;;13.67;;
15385;SDS011;7791;47.246;9.648;2024-03-02T02:17:25;27.47;;;14.63;;
15385;SDS011;7791;47.246;9.648;2024-03-02T02:19:56;24.30;;;13.77;;
15385;SDS011;7791;47.246;9.648;2024-03-02T02:25:27;27.30;;;14.20;;
15385;SDS011;7791;47.246;9.648;2024-03-02T02:28:10;29.47;;;13.77;;
15385;SDS011;7791;47.246;9.648;2024-03-02T02:30:47;26.80;;;14.30;;
15385;SDS011;7791;47.246;9.648;2024-03-02T02:33:23;26.43;;;13.23;;
15385;SDS011;7791;47.246;9.648;2024-03-02T02:35:56;23.87;;;13.37;;
15385;SDS011;7791;47.246;9.648;2024-03-02T02:38:41;25.23;;;13.37;;
15385;SDS011;7791;47.246;9.648;2024-03-02T02:41:22;23.97;;;12.00;;
15385;SDS011;7791;47.246;9.648;2024-03-02T02:43:57;24.40;;;12.03;;
15385;SDS011;7791;47.246;9.648;2024-03-02T02:46:40;19.90;;;11.07;;
15385;SDS011;7791;47.246;9.648;2024-03-02T02:49:41;18.33;;;10.17;;
15385;SDS011;7791;47.246;9.648;2024-03-02T02:52:10;25.33;;;13.13;;
15385;SDS011;7791;47.246;9.648;2024-03-02T02:57:23;25.87;;;13.63;;
15385;SDS011;7791;47.246;9.648;2024-03-02T03:02:46;27.73;;;14.30;;
15385;SDS011;7791;47.246;9.648;2024-03-02T03:05:19;24.47;;;13.37;;
15385;SDS011;7791;47.246;9.648;2024-03-02T03:08:09;31.47;;;13.47;;
15385;SDS011;7791;47.246;9.648;2024-03-02T03:10:45;25.20;;;13.00;;
15385;SDS011;7791;47.246;9.648;2024-03-02T03:13:16;23.30;;;12.67;;
15385;SDS011;7791;47.246;9.648;2024-03-02T03:15:57;26.60;;;12.10;;
15385;SDS011;7791;47.246;9.648;2024-03-02T03:18:31;24.33;;;12.07;;
15385;SDS011;7791;47.246;9.648;2024-03-02T03:21:15;23.20;;;12.40;;
15385;SDS011;7791;47.246;9.648;2024-03-02T03:23:57;24.13;;;12.07;;
15385;SDS011;7791;47.246;9.648;2024-03-02T03:26:30;26.63;;;12.17;;
15385;SDS011;7791;47.246;9.648;2024-03-02T03:29:24;25.30;;;12.60;;
15385;SDS011;7791;47.246;9.648;2024-03-02T03:32:00;23.47;;;11.47;;
15385;SDS011;7791;47.246;9.648;2024-03-02T03:34:32;24.80;;;11.37;;
15385;SDS011;7791;47.246;9.648;2024-03-02T03:40:09;20.87;;;11.20;;
15385;SDS011;7791;47.246;9.648;2024-03-02T03:42:51;23.07;;;11.57;;
15385;SDS011;7791;47.246;9.648;2024-03-02T03:45:25;23.97;;;10.97;;
15385;SDS011;7791;47.246;9.648;2024-03-02T03:47:58;20.97;;;10.97;;
15385;SDS011;7791;47.246;9.648;2024-03-02T03:50:28;25.40;;;11.43;;
15385;SDS011;7791;47.246;9.648;2024-03-02T03:53:06;25.53;;;11.33;;
15385;SDS011;7791;47.246;9.648;2024-03-02T03:55:43;20.67;;;10.33;;
15385;SDS011;7791;47.246;9.648;2024-03-02T04:01:10;23.60;;;10.87;;
15385;SDS011;7791;47.246;9.648;2024-03-02T04:03:59;29.03;;;12.90;;
15385;SDS011;7791;47.246;9.648;2024-03-02T04:06:49;26.33;;;12.40;;
15385;SDS011;7791;47.246;9.648;2024-03-02T04:12:11;47.90;;;11.97;;
15385;SDS011;7791;47.246;9.648;2024-03-02T04:14:54;22.10;;;10.57;;
15385;SDS011;7791;47.246;9.648;2024-03-02T04:17:26;26.00;;;11.80;;
15385;SDS011;7791;47.246;9.648;2024-03-02T04:20:03;21.03;;;10.27;;
15385;SDS011;7791;47.246;9.648;2024-03-02T04:22:41;23.60;;;10.83;;
15385;SDS011;7791;47.246;9.648;2024-03-02T04:25:29;23.00;;;10.83;;
15385;SDS011;7791;47.246;9.648;2024-03-02T04:28:07;23.67;;;10.10;;
15385;SDS011;7791;47.246;9.648;2024-03-02T04:30:41;20.90;;;10.70;;
15385;SDS011;7791;47.246;9.648;2024-03-02T04:33:12;21.57;;;9.97;;
15385;SDS011;7791;47.246;9.648;2024-03-02T04:35:43;21.70;;;10.10;;
15385;SDS011;7791;47.246;9.648;2024-03-02T04:38:13;26.70;;;11.63;;
15385;SDS011;7791;47.246;9.648;2024-03-02T04:40:51;22.90;;;10.67;;
15385;SDS011;7791;47.246;9.648;2024-03-02T04:43:26;22.13;;;10.70;;
15385;SDS011;7791;47.246;9.648;2024-03-02T04:46:08;23.00;;;10.90;;
15385;SDS011;7791;47.246;9.648;2024-03-02T04:48:39;22.00;;;10.70;;
15385;SDS011;7791;47.246;9.648;2024-03-02T04:51:14;20.97;;;10.73;;
15385;SDS011;7791;47.246;9.648;2024-03-02T04:53:52;24.43;;;11.13;;
15385;SDS011;7791;47.246;9.648;2024-03-02T04:56:20;37.43;;;10.37;;
15385;SDS011;7791;47.246;9.648;2024-03-02T04:58:55;29.80;;;11.00;;
15385;SDS011;7791;47.246;9.648;2024-03-02T05:01:52;31.73;;;10.23;;
15385;SDS011;7791;47.246;9.648;2024-03-02T05:04:20;19.40;;;9.03;;
15385;SDS011;7791;47.246;9.648;2024-03-02T05:06:49;20.83;;;8.67;;
15385;SDS011;7791;47.246;9.648;2024-03-02T05:09:28;27.90;;;8.70;;
15385;SDS011;7791;47.246;9.648;2024-03-02T05:12:06;23.77;;;9.37;;
15385;SDS011;7791;47.246;9.648;2024-03-02T05:17:37;25.03;;;9.90;;
15385;SDS011;7791;47.246;9.648;2024-03-02T05:20:10;21.63;;;9.70;;
15385;SDS011;7791;47.246;9.648;2024-03-02T05:22:43;25.07;;;10.20;;
15385;SDS011;7791;47.246;9.648;2024-03-02T05:25:32;22.37;;;10.27;;
15385;SDS011;7791;47.246;9.648;2024-03-02T05:28:06;26.00;;;10.73;;
15385;SDS011;7791;47.246;9.648;2024-03-02T05:30:39;24.87;;;10.27;;
15385;SDS011;7791;47.246;9.648;2024-03-02T05:36:13;23.80;;;9.20;;
15385;SDS011;7791;47.246;9.648;2024-03-02T05:38:52;20.27;;;9.53;;
15385;SDS011;7791;47.246;9.648;2024-03-02T05:41:33;21.97;;;10.03;;
15385;SDS011;7791;47.246;9.648;2024-03-02T05:44:02;21.93;;;9.70;;
15385;SDS011;7791;47.246;9.648;2024-03-02T05:46:34;27.80;;;11.87;;
15385;SDS011;7791;47.246;9.648;2024-03-02T05:49:03;21.63;;;10.23;;
15385;SDS011;7791;47.246;9.648;2024-03-02T05:54:24;18.50;;;8.23;;
15385;SDS011;7791;47.246;9.648;2024-03-02T05:56:55;28.93;;;7.67;;
15385;SDS011;7791;47.246;9.648;2024-03-02T05:59:37;50.90;;;9.27;;
15385;SDS011;7791;47.246;9.648;2024-03-02T06:02:15;20.97;;;9.00;;
15385;SDS011;7791;47.246;9.648;2024-03-02T06:04:59;17.27;;;7.70;;
15385;SDS011;7791;47.246;9.648;2024-03-02T06:07:29;18.40;;;9.10;;
15385;SDS011;7791;47.246;9.648;2024-03-02T06:10:00;21.73;;;10.27;;
15385;SDS011;7791;47.246;9.648;2024-03-02T06:12:35;19.30;;;9.77;;
15385;SDS011;7791;47.246;9.648;2024-03-02T06:15:07;19.43;;;9.13;;
15385;SDS011;7791;47.246;9.648;2024-03-02T06:17:38;20.27;;;8.60;;
15385;SDS011;7791;47.246;9.648;2024-03-02T06:20:18;18.57;;;8.17;;
15385;SDS011;7791;47.246;9.648;2024-03-02T06:23:09;14.57;;;7.37;;
15385;SDS011;7791;47.246;9.648;2024-03-02T06:25:50;18.33;;;8.87;;
15385;SDS011;7791;47.246;9.648;2024-03-02T06:28:22;16.53;;;8.70;;
15385;SDS011;7791;47.246;9.648;2024-03-02T06:33:53;17.57;;;8.80;;
15385;SDS011;7791;47.246;9.648;2024-03-02T06:36:23;23.33;;;9.87;;
15385;SDS011;7791;47.246;9.648;2024-03-02T06:38:56;23.13;;;10.23;;
15385;SDS011;7791;47.246;9.648;2024-03-02T06:41:34;25.33;;;10.47;;
15385;SDS011;7791;47.246;9.648;2024-03-02T06:44:19;20.23;;;9.90;;
15385;SDS011;7791;47.246;9.648;2024-03-02T06:46:58;20.67;;;9.90;;
15385;SDS011;7791;47.246;9.648;2024-03-02T06:49:40;23.10;;;10.00;;
15385;SDS011;7791;47.246;9.648;2024-03-02T06:52:15;20.73;;;9.60;;
15385;SDS011;7791;47.246;9.648;2024-03-02T06:54:46;24.90;;;12.27;;
15385;SDS011;7791;47.246;9.648;2024-03-02T06:57:24;22.67;;;9.47;;
15385;SDS011;7791;47.246;9.648;2024-03-02T06:59:56;19.37;;;9.50;;
15385;SDS011;7791;47.246;9.648;2024-03-02T07:02:30;21.20;;;9.43;;
15385;SDS011;7791;47.246;9.648;2024-03-02T07:05:06;19.33;;;8.90;;
15385;SDS011;7791;47.246;9.648;2024-03-02T07:07:55;19.17;;;8.80;;
15385;SDS011;7791;47.246;9.648;2024-03-02T07:10:33;22.70;;;9.47;;
15385;SDS011;7791;47.246;9.648;2024-03-02T07:13:01;19.33;;;9.43;;
15385;SDS011;7791;47.246;9.648;2024-03-02T07:15:49;19.70;;;10.20;;
15385;SDS011;7791;47.246;9.648;2024-03-02T07:18:20;20.83;;;9.83;;
15385;SDS011;7791;47.246;9.648;2024-03-02T07:20:50;19.80;;;10.40;;
15385;SDS011;7791;47.246;9.648;2024-03-02T07:23:15;18.07;;;10.13;;
15385;SDS011;7791;47.246;9.648;2024-03-02T07:25:54;17.47;;;9.33;;
15385;SDS011;7791;47.246;9.648;2024-03-02T07:28:39;22.60;;;10.40;;
15385;SDS011;7791;47.246;9.648;2024-03-02T07:31:22;18.23;;;9.40;;
15385;SDS011;7791;47.246;9.648;2024-03-02T07:33:54;14.63;;;7.90;;
15385;SDS011;7791;47.246;9.648;2024-03-02T07:36:37;15.33;;;8.10;;
15385;SDS011;7791;47.246;9.648;2024-03-02T07:39:13;19.70;;;10.83;;
15385;SDS011;7791;47.246;9.648;2024-03-02T07:41:47;18.90;;;9.50;;
15385;SDS011;7791;47.246;9.648;2024-03-02T07:44:21;13.00;;;7.77;;
15385;SDS011;7791;47.246;9.648;2024-03-02T07:46:47;12.53;;;7.23;;
15385;SDS011;7791;47.246;9.648;2024-03-02T07:49:18;12.17;;;7.13;;
15385;SDS011;7791;47.246;9.648;2024-03-02T07:52:00;15.27;;;8.50;;
15385;SDS011;7791;47.246;9.648;2024-03-02T07:54:35;11.63;;;7.30;;
15385;SDS011;7791;47.246;9.648;2024-03-02T07:57:07;11.23;;;6.23;;
15385;SDS011;7791;47.246;9.648;2024-03-02T07:59:40;9.20;;;5.93;;
15385;SDS011;7791;47.246;9.648;2024-03-02T08:02:11;12.07;;;6.77;;
15385;SDS011;7791;47.246;9.648;2024-03-02T08:07:37;11.07;;;6.47;;
15385;SDS011;7791;47.246;9.648;2024-03-02T08:10:22;14.23;;;7.90;;
15385;SDS011;7791;47.246;9.648;2024-03-02T08:13:11;18.00;;;9.03;;
15385;SDS011;7791;47.246;9.648;2024-03-02T08:15:51;15.70;;;9.27;;
15385;SDS011;7791;47.246;9.648;2024-03-02T08:18:25;19.97;;;12.43;;
15385;SDS011;7791;47.246;9.648;2024-03-02T08:26:45;16.17;;;8.30;;
15385;SDS011;7791;47.246;9.648;2024-03-02T08:29:21;9.33;;;5.63;;
15385;SDS011;7791;47.246;9.648;2024-03-02T08:31:55;9.07;;;4.57;;
15385;SDS011;7791;47.246;9.648;2024-03-02T08:34:31;7.23;;;4.47;;
15385;SDS011;7791;47.246;9.648;2024-03-02T08:37:10;7.03;;;4.00;;
15385;SDS011;7791;47.246;9.648;2024-03-02T08:39:44;6.27;;;3.93;;
15385;SDS011;7791;47.246;9.648;2024-03-02T08:42:24;8.63;;;3.80;;
15385;SDS011;7791;47.246;9.648;2024-03-02T08:45:01;4.93;;;3.77;;
15385;SDS011;7791;47.246;9.648;2024-03-02T08:47:41;4.57;;;3.40;;
15385;SDS011;7791;47.246;9.648;2024-03-02T08:50:09;3.60;;;2.47;;
15385;SDS011;7791;47.246;9.648;2024-03-02T08:52:46;5.23;;;2.10;;
15385;SDS011;7791;47.246;9.648;2024-03-02T08:55:31;3.03;;;2.10;;
15385;SDS011;7791;47.246;9.648;2024-03-02T08:58:10;2.43;;;1.60;;
15385;SDS011;7791;47.246;9.648;2024-03-02T09:01:00;3.27;;;1.70;;
15385;SDS011;7791;47.246;9.648;2024-03-02T09:03:46;3.67;;;1.70;;
15385;SDS011;7791;47.246;9.648;2024-03-02T09:06:24;2.70;;;1.90;;
15385;SDS011;7791;47.246;9.648;2024-03-02T09:08:54;3.93;;;2.13;;
15385;SDS011;7791;47.246;9.648;2024-03-02T09:11:34;3.00;;;1.60;;
15385;SDS011;7791;47.246;9.648;2024-03-02T09:14:13;4.23;;;1.40;;
15385;SDS011;7791;47.246;9.648;2024-03-02T09:16:51;1.70;;;1.20;;
15385;SDS011;7791;47.246;9.648;2024-03-02T09:19:42;3.57;;;1.47;;
15385;SDS011;7791;47.246;9.648;2024-03-02T09:22:10;3.60;;;1.30;;
15385;SDS011;7791;47.246;9.648;2024-03-02T09:24:50;3.20;;;1.40;;
15385;SDS011;7791;47.246;9.648;2024-03-02T09:27:29;2.50;;;1.27;;
15385;SDS011;7791;47.246;9.648;2024-03-02T09:33:00;1.47;;;1.37;;
15385;SDS011;7791;47.246;9.648;2024-03-02T09:35:36;2.60;;;1.40;;
15385;SDS011;7791;47.246;9.648;2024-03-02T09:38:12;2.10;;;1.30;;
15385;SDS011;7791;47.246;9.648;2024-03-02T09:40:51;1.53;;;1.23;;
15385;SDS011;7791;47.246;9.648;2024-03-02T09:43:24;3.93;;;1.70;;
15385;SDS011;7791;47.246;9.648;2024-03-02T09:46:00;2.30;;;1.83;;
15385;SDS011;7791;47.246;9.648;2024-03-02T09:51:15;1.43;;;1.03;;
15385;SDS011;7791;47.246;9.648;2024-03-02T09:53:46;1.30;;;1.20;;
15385;SDS011;7791;47.246;9.648;2024-03-02T09:56:30;2.57;;;2.03;;
15385;SDS011;7791;47.246;9.648;2024-03-02T09:59:06;1.80;;;1.30;;
15385;SDS011;7791;47.246;9.648;2024-03-02T10:01:36;3.70;;;1.20;;
15385;SDS011;7791;47.246;9.648;2024-03-02T10:04:25;6.30;;;3.40;;
15385;SDS011;7791;47.246;9.648;2024-03-02T10:07:12;4.10;;;2.30;;
15385;SDS011;7791;47.246;9.648;2024-03-02T10:09:45;2.37;;;1.80;;
15385;SDS011;7791;47.246;9.648;2024-03-02T10:15:33;2.10;;;1.30;;
15385;SDS011;7791;47.246;9.648;2024-03-02T10:18:08;2.20;;;1.50;;
15385;SDS011;7791;47.246;9.648;2024-03-02T10:20:53;1.93;;;1.13;;
15385;SDS011;7791;47.246;9.648;2024-03-02T10:23:43;3.00;;;1.27;;
15385;SDS011;7791;47.246;9.648;2024-03-02T10:28:59;2.77;;;1.40;;
15385;SDS011;7791;47.246;9.648;2024-03-02T10:31:29;1.57;;;1.37;;
15385;SDS011;7791;47.246;9.648;2024-03-02T10:34:03;1.40;;;1.17;;
15385;SDS011;7791;47.246;9.648;2024-03-02T10:36:43;2.50;;;1.50;;
15385;SDS011;7791;47.246;9.648;2024-03-02T10:39:09;1.80;;;1.20;;
15385;SDS011;7791;47.246;9.648;2024-03-02T10:41:49;2.63;;;1.33;;
15385;SDS011;7791;47.246;9.648;2024-03-02T10:44:34;1.47;;;1.20;;
15385;SDS011;7791;47.246;9.648;2024-03-02T10:47:05;2.40;;;1.50;;
15385;SDS011;7791;47.246;9.648;2024-03-02T10:49:45;1.33;;;1.10;;
15385;SDS011;7791;47.246;9.648;2024-03-02T10:52:31;2.20;;;1.30;;
15385;SDS011;7791;47.246;9.648;2024-03-02T10:55:06;1.97;;;1.20;;
15385;SDS011;7791;47.246;9.648;2024-03-02T10:57:50;4.23;;;2.30;;
15385;SDS011;7791;47.246;9.648;2024-03-02T11:00:35;1.67;;;1.37;;
15385;SDS011;7791;47.246;9.648;2024-03-02T11:03:11;2.17;;;1.30;;
15385;SDS011;7791;47.246;9.648;2024-03-02T11:05:43;3.03;;;1.40;;
15385;SDS011;7791;47.246;9.648;2024-03-02T11:08:19;7.57;;;4.73;;
15385;SDS011;7791;47.246;9.648;2024-03-02T11:11:02;2.20;;;1.60;;
15385;SDS011;7791;47.246;9.648;2024-03-02T11:13:54;1.90;;;1.60;;
15385;SDS011;7791;47.246;9.648;2024-03-02T11:16:34;0.93;;;0.70;;
15385;SDS011;7791;47.246;9.648;2024-03-02T11:19:03;1.27;;;0.90;;
15385;SDS011;7791;47.246;9.648;2024-03-02T11:21:45;2.80;;;0.90;;
15385;SDS011;7791;47.246;9.648;2024-03-02T11:24:36;2.80;;;0.80;;
15385;SDS011;7791;47.246;9.648;2024-03-02T11:27:20;2.17;;;0.73;;
15385;SDS011;7791;47.246;9.648;2024-03-02T11:33:25;1.20;;;0.80;;
15385;SDS011;7791;47.246;9.648;2024-03-02T11:36:14;2.73;;;0.70;;
15385;SDS011;7791;47.246;9.648;2024-03-02T11:39:00;2.67;;;1.20;;
15385;SDS011;7791;47.246;9.648;2024-03-02T11:41:43;1.07;;;0.60;;
15385;SDS011;7791;47.246;9.648;2024-03-02T11:44:18;0.70;;;0.60;;
15385;SDS011;7791;47.246;9.648;2024-03-02T11:47:02;0.90;;;0.70;;
15385;SDS011;7791;47.246;9.648;2024-03-02T11:49:44;1.00;;;0.80;;
15385;SDS011;7791;47.246;9.648;2024-03-02T11:52:26;2.33;;;1.77;;
15385;SDS011;7791;47.246;9.648;2024-03-02T11:57:47;1.90;;;1.37;;
15385;SDS011;7791;47.246;9.648;2024-03-02T12:00:25;2.27;;;0.83;;
15385;SDS011;7791;47.246;9.648;2024-03-02T12:03:07;1.80;;;1.60;;
15385;SDS011;7791;47.246;9.648;2024-03-02T12:05:53;0.90;;;0.80;;
15385;SDS011;7791;47.246;9.648;2024-03-02T12:08:27;0.80;;;0.70;;
15385;SDS011;7791;47.246;9.648;2024-03-02T12:10:59;1.17;;;0.70;;
15385;SDS011;7791;47.246;9.648;2024-03-02T12:13:43;1.93;;;0.63;;
15385;SDS011;7791;47.246;9.648;2024-03-02T12:16:24;1.30;;;0.90;;
15385;SDS011;7791;47.246;9.648;2024-03-02T12:18:59;1.37;;;0.90;;
15385;SDS011;7791;47.246;9.648;2024-03-02T12:21:35;1.03;;;0.60;;
15385;SDS011;7791;47.246;9.648;2024-03-02T12:24:12;3.80;;;0.80;;
15385;SDS011;7791;47.246;9.648;2024-03-02T12:27:02;1.60;;;0.60;;
15385;SDS011;7791;47.246;9.648;2024-03-02T12:29:44;1.47;;;0.50;;
15385;SDS011;7791;47.246;9.648;2024-03-02T12:32:20;4.03;;;0.60;;
15385;SDS011;7791;47.246;9.648;2024-03-02T12:35:09;0.70;;;0.50;;
15385;SDS011;7791;47.246;9.648;2024-03-02T12:37:47;1.00;;;0.47;;
15385;SDS011;7791;47.246;9.648;2024-03-02T12:40:20;0.77;;;0.53;;
15385;SDS011;7791;47.246;9.648;2024-03-02T12:43:01;2.10;;;0.80;;
15385;SDS011;7791;47.246;9.648;2024-03-02T12:46:00;0.83;;;0.50;;
15385;SDS011;7791;47.246;9.648;2024-03-02T12:48:39;1.37;;;0.40;;
15385;SDS011;7791;47.246;9.648;2024-03-02T12:54:21;1.00;;;0.60;;
15385;SDS011;7791;47.246;9.648;2024-03-02T13:00:01;1.23;;;0.67;;
15385;SDS011;7791;47.246;9.648;2024-03-02T13:02:41;0.83;;;0.67;;
15385;SDS011;7791;47.246;9.648;2024-03-02T13:05:16;0.73;;;0.43;;
15385;SDS011;7791;47.246;9.648;2024-03-02T13:08:01;0.83;;;0.60;;
15385;SDS011;7791;47.246;9.648;2024-03-02T13:13:30;0.97;;;0.80;;
15385;SDS011;7791;47.246;9.648;2024-03-02T13:16:09;2.23;;;0.70;;
15385;SDS011;7791;47.246;9.648;2024-03-02T13:18:52;1.23;;;0.90;;
15385;SDS011;7791;47.246;9.648;2024-03-02T13:21:29;1.37;;;0.60;;
15385;SDS011;7791;47.246;9.648;2024-03-02T13:24:38;2.30;;;1.03;;
15385;SDS011;7791;47.246;9.648;2024-03-02T13:27:16;0.90;;;0.60;;
15385;SDS011;7791;47.246;9.648;2024-03-02T13:29:55;1.17;;;1.00;;
15385;SDS011;7791;47.246;9.648;2024-03-02T13:32:35;3.43;;;0.93;;
15385;SDS011;7791;47.246;9.648;2024-03-02T13:35:17;1.03;;;0.77;;
15385;SDS011;7791;47.246;9.648;2024-03-02T13:38:01;1.50;;;0.70;;
15385;SDS011;7791;47.246;9.648;2024-03-02T13:40:31;1.33;;;0.77;;
15385;SDS011;7791;47.246;9.648;2024-03-02T13:43:09;1.57;;;0.73;;
15385;SDS011;7791;47.246;9.648;2024-03-02T13:45:49;1.53;;;0.90;;
15385;SDS011;7791;47.246;9.648;2024-03-02T13:48:25;2.67;;;1.10;;
15385;SDS011;7791;47.246;9.648;2024-03-02T13:53:48;0.77;;;0.70;;
15385;SDS011;7791;47.246;9.648;2024-03-02T13:56:19;1.73;;;0.70;;
15385;SDS011;7791;47.246;9.648;2024-03-02T13:58:52;2.27;;;0.90;;
15385;SDS011;7791;47.246;9.648;2024-03-02T14:01:36;0.80;;;0.60;;
15385;SDS011;7791;47.246;9.648;2024-03-02T14:04:05;0.80;;;0.70;;
15385;SDS011;7791;47.246;9.648;2024-03-02T14:06:39;1.10;;;0.73;;
15385;SDS011;7791;47.246;9.648;2024-03-02T14:09:12;0.83;;;0.43;;
15385;SDS011;7791;47.246;9.648;2024-03-02T14:11:44;1.10;;;0.70;;
15385;SDS011;7791;47.246;9.648;2024-03-02T14:14:22;1.53;;;0.77;;
15385;SDS011;7791;47.246;9.648;2024-03-02T14:16:52;1.13;;;0.70;;
15385;SDS011;7791;47.246;9.648;2024-03-02T14:19:32;1.00;;;0.70;;
15385;SDS011;7791;47.246;9.648;2024-03-02T14:22:12;0.93;;;0.73;;
15385;SDS011;7791;47.246;9.648;2024-03-02T14:24:51;0.50;;;0.50;;
15385;SDS011;7791;47.246;9.648;2024-03-02T14:27:33;1.47;;;0.60;;
15385;SDS011;7791;47.246;9.648;2024-03-02T14:30:29;2.20;;;1.00;;
15385;SDS011;7791;47.246;9.648;2024-03-02T14:33:18;1.30;;;0.70;;
15385;SDS011;7791;47.246;9.648;2024-03-02T14:35:57;1.17;;;0.60;;
15385;SDS011;7791;47.246;9.648;2024-03-02T14:41:27;1.73;;;1.13;;
15385;SDS011;7791;47.246;9.648;2024-03-02T14:44:15;1.43;;;0.70;;
15385;SDS011;7791;47.246;9.648;2024-03-02T14:46:50;1.70;;;0.80;;
15385;SDS011;7791;47.246;9.648;2024-03-02T14:49:38;0.97;;;0.60;;
15385;SDS011;7791;47.246;9.648;2024-03-02T14:52:15;0.93;;;0.57;;
15385;SDS011;7791;47.246;9.648;2024-03-02T14:54:43;1.00;;;0.67;;
15385;SDS011;7791;47.246;9.648;2024-03-02T14:57:35;0.70;;;0.60;;
15385;SDS011;7791;47.246;9.648;2024-03-02T15:00:12;1.47;;;1.00;;
15385;SDS011;7791;47.246;9.648;2024-03-02T15:02:47;1.00;;;0.77;;
15385;SDS011;7791;47.246;9.648;2024-03-02T15:05:18;1.27;;;1.10;;
15385;SDS011;7791;47.246;9.648;2024-03-02T15:08:05;1.67;;;0.70;;
15385;SDS011;7791;47.246;9.648;2024-03-02T15:10:36;1.20;;;0.70;;
15385;SDS011;7791;47.246;9.648;2024-03-02T15:13:20;1.73;;;0.70;;
15385;SDS011;7791;47.246;9.648;2024-03-02T15:15:59;3.77;;;1.20;;
15385;SDS011;7791;47.246;9.648;2024-03-02T15:18:35;2.70;;;1.60;;
15385;SDS011;7791;47.246;9.648;2024-03-02T15:21:21;2.80;;;0.70;;
15385;SDS011;7791;47.246;9.648;2024-03-02T15:24:04;2.67;;;0.60;;
15385;SDS011;7791;47.246;9.648;2024-03-02T15:26:39;2.20;;;0.87;;
15385;SDS011;7791;47.246;9.648;2024-03-02T15:29:27;2.13;;;1.30;;
15385;SDS011;7791;47.246;9.648;2024-03-02T15:31:57;3.70;;;2.40;;
15385;SDS011;7791;47.246;9.648;2024-03-02T15:34:27;3.23;;;1.10;;
15385;SDS011;7791;47.246;9.648;2024-03-02T15:36:58;2.00;;;0.93;;
15385;SDS011;7791;47.246;9.648;2024-03-02T15:39:29;7.33;;;2.37;;
15385;SDS011;7791;47.246;9.648;2024-03-02T15:41:57;3.53;;;1.90;;
15385;SDS011;7791;47.246;9.648;2024-03-02T15:44:32;2.97;;;2.10;;
15385;SDS011;7791;47.246;9.648;2024-03-02T15:47:03;2.30;;;1.40;;
15385;SDS011;7791;47.246;9.648;2024-03-02T15:49:34;3.00;;;1.33;;
15385;SDS011;7791;47.246;9.648;2024-03-02T15:52:04;3.80;;;1.80;;
15385;SDS011;7791;47.246;9.648;2024-03-02T15:57:33;6.17;;;2.43;;
15385;SDS011;7791;47.246;9.648;2024-03-02T16:00:06;2.97;;;2.23;;
15385;SDS011;7791;47.246;9.648;2024-03-02T16:02:39;3.23;;;2.00;;
15385;SDS011;7791;47.246;9.648;2024-03-02T16:05:15;4.00;;;2.13;;
15385;SDS011;7791;47.246;9.648;2024-03-02T16:07:54;2.60;;;1.90;;
15385;SDS011;7791;47.246;9.648;2024-03-02T16:13:24;5.03;;;2.10;;
15385;SDS011;7791;47.246;9.648;2024-03-02T16:15:55;4.43;;;1.20;;
15385;SDS011;7791;47.246;9.648;2024-03-02T16:18:30;2.10;;;1.40;;
15385;SDS011;7791;47.246;9.648;2024-03-02T16:21:12;3.17;;;2.20;;
15385;SDS011;7791;47.246;9.648;2024-03-02T16:23:45;5.17;;;2.10;;
15385;SDS011;7791;47.246;9.648;2024-03-02T16:26:22;4.63;;;2.50;;
15385;SDS011;7791;47.246;9.648;2024-03-02T16:29:17;4.43;;;2.07;;
15385;SDS011;7791;47.246;9.648;2024-03-02T16:31:53;2.80;;;1.60;;
15385;SDS011;7791;47.246;9.648;2024-03-02T16:34:29;1.93;;;1.40;;
15385;SDS011;7791;47.246;9.648;2024-03-02T16:37:07;6.03;;;1.30;;
15385;SDS011;7791;47.246;9.648;2024-03-02T16:39:43;2.73;;;1.80;;
15385;SDS011;7791;47.246;9.648;2024-03-02T16:42:11;6.50;;;2.37;;
15385;SDS011;7791;47.246;9.648;2024-03-02T16:44:51;2.60;;;1.70;;
15385;SDS011;7791;47.246;9.648;2024-03-02T16:47:25;6.10;;;2.17;;
15385;SDS011;7791;47.246;9.648;2024-03-02T16:50:00;3.37;;;2.30;;
15385;SDS011;7791;47.246;9.648;2024-03-02T16:52:28;5.10;;;2.37;;
15385;SDS011;7791;47.246;9.648;2024-03-02T16:55:17;10.07;;;3.90;;
15385;SDS011;7791;47.246;9.648;2024-03-02T16:57:48;3.87;;;2.60;;
15385;SDS011;7791;47.246;9.648;2024-03-02T17:00:37;3.67;;;2.77;;
15385;SDS011;7791;47.246;9.648;2024-03-02T17:09:18;3.37;;;2.07;;
15385;SDS011;7791;47.246;9.648;2024-03-02T17:11:59;4.37;;;1.83;;
15385;SDS011;7791;47.246;9.648;2024-03-02T17:14:38;3.73;;;1.97;;
15385;SDS011;7791;47.246;9.648;2024-03-02T17:17:19;3.40;;;2.27;;
15385;SDS011;7791;47.246;9.648;2024-03-02T17:19:55;6.53;;;3.40;;
15385;SDS011;7791;47.246;9.648;2024-03-02T17:22:31;6.77;;;4.37;;
15385;SDS011;7791;47.246;9.648;2024-03-02T17:24:58;3.70;;;2.67;;
15385;SDS011;7791;47.246;9.648;2024-03-02T17:27:46;4.43;;;2.13;;
15385;SDS011;7791;47.246;9.648;2024-03-02T17:30:22;4.90;;;2.77;;
15385;SDS011;7791;47.246;9.648;2024-03-02T17:32:49;4.83;;;2.73;;
15385;SDS011;7791;47.246;9.648;2024-03-02T17:35:26;8.67;;;3.37;;
15385;SDS011;7791;47.246;9.648;2024-03-02T17:38:05;7.03;;;4.10;;
15385;SDS011;7791;47.246;9.648;2024-03-02T17:40:38;10.33;;;5.13;;
15385;SDS011;7791;47.246;9.648;2024-03-02T17:43:05;5.10;;;3.20;;
15385;SDS011;7791;47.246;9.648;2024-03-02T17:45:44;7.87;;;4.10;;
15385;SDS011;7791;47.246;9.648;2024-03-02T17:48:20;6.60;;;3.90;;
15385;SDS011;7791;47.246;9.648;2024-03-02T17:50:55;6.03;;;3.50;;
15385;SDS011;7791;47.246;9.648;2024-03-02T17:53:46;6.53;;;3.57;;
15385;SDS011;7791;47.246;9.648;2024-03-02T17:56:23;7.67;;;3.10;;